createdAt,value
2023-07-18T00:01:33.126Z,98983.75
2023-07-18T00:03:59.755Z,98980.22
2023-07-18T00:06:26.296Z,98987.03
2023-07-18T00:08:52.855Z,98990.28
2023-07-18T00:11:19.734Z,98999.09
2023-07-18T00:13:46.488Z,98993.59
2023-07-18T00:16:13.159Z,98992.22
2023-07-18T00:18:39.736Z,98997.44
2023-07-18T00:21:06.685Z,98996.19
2023-07-18T00:23:33.248Z,98992.41
2023-07-18T00:25:59.784Z,98988.38
2023-07-18T00:28:26.554Z,99001.38
2023-07-18T00:30:53.103Z,98997.84
2023-07-18T00:33:19.660Z,98998.06
2023-07-18T00:35:46.150Z,99001.16
2023-07-18T00:38:15.732Z,98996.47
2023-07-18T00:40:42.281Z,98993.59
2023-07-18T00:43:15.949Z,98994.31
2023-07-18T00:45:44.196Z,98992.53
2023-07-18T00:48:11.650Z,98982.25
2023-07-18T00:50:39.114Z,98987.31
2023-07-18T00:53:06.139Z,98991.41
2023-07-18T00:55:32.869Z,98987.56
2023-07-18T00:58:00.914Z,98984.38
2023-07-18T01:00:28.046Z,98988.97
2023-07-18T01:02:55.310Z,98988.25
2023-07-18T01:05:22.115Z,98987.41
2023-07-18T01:07:49.741Z,98989.97
2023-07-18T01:10:17.276Z,98993.97
2023-07-18T01:12:45.204Z,98990.06
2023-07-18T01:15:14.321Z,98995.22
2023-07-18T01:17:47.850Z,98993.28
2023-07-18T01:20:19.612Z,98993.31
2023-07-18T01:22:47.724Z,98988.47
2023-07-18T01:25:17.775Z,98992.88
2023-07-18T01:27:45.826Z,98985.03
2023-07-18T01:30:13.513Z,98983.75
2023-07-18T01:32:40.099Z,98985.75
2023-07-18T01:35:09.303Z,98991.69
2023-07-18T01:37:38.267Z,98993.50
2023-07-18T01:40:07.645Z,98992.16
2023-07-18T01:42:34.207Z,98982.78
2023-07-18T01:45:00.856Z,98982.13
2023-07-18T01:47:27.431Z,98977.75
2023-07-18T01:49:54.244Z,98979.22
2023-07-18T01:52:20.786Z,98974.13
2023-07-18T01:54:47.243Z,98978.97
2023-07-18T01:57:13.776Z,98981.56
2023-07-18T01:59:40.276Z,98978.84
2023-07-18T02:02:07.636Z,98974.47
2023-07-18T02:04:34.376Z,98975.78
2023-07-18T02:07:01.312Z,98971.25
2023-07-18T02:09:29.134Z,98972.38
2023-07-18T02:11:55.870Z,98976.13
2023-07-18T02:14:22.709Z,98972.03
2023-07-18T02:16:49.343Z,98964.66
2023-07-18T02:19:15.935Z,98965.75
2023-07-18T02:21:42.494Z,98966.19
2023-07-18T02:24:08.977Z,98974.38
2023-07-18T02:26:36.534Z,98963.91
2023-07-18T02:29:03.092Z,98967.06
2023-07-18T02:31:29.697Z,98958.69
2023-07-18T02:33:56.303Z,98965.00
2023-07-18T02:36:23.018Z,98962.06
2023-07-18T02:38:49.530Z,98963.22
2023-07-18T02:41:16.056Z,98967.94
2023-07-18T02:43:42.587Z,98959.31
2023-07-18T02:46:09.133Z,98961.97
2023-07-18T02:48:35.703Z,98960.00
2023-07-18T02:51:02.267Z,98950.81
2023-07-18T02:53:28.796Z,98949.88
2023-07-18T02:55:55.481Z,98952.31
2023-07-18T02:58:23.451Z,98953.34
2023-07-18T03:00:52.468Z,98944.66
2023-07-18T03:03:19.021Z,98946.50
2023-07-18T03:05:45.615Z,98946.38
2023-07-18T03:08:12.124Z,98955.53
2023-07-18T03:10:39.928Z,98951.34
2023-07-18T03:13:06.459Z,98956.19
2023-07-18T03:15:33.026Z,98960.47
2023-07-18T03:17:59.827Z,98962.63
2023-07-18T03:20:27.953Z,98949.63
2023-07-18T03:22:54.531Z,98948.16
2023-07-18T03:25:21.933Z,98943.03
2023-07-18T03:27:48.671Z,98942.50
2023-07-18T03:30:15.448Z,98944.41
2023-07-18T03:32:42.266Z,98947.66
2023-07-18T03:35:10.470Z,98945.53
2023-07-18T03:37:37.060Z,98937.94
2023-07-18T03:40:07.695Z,98940.13
2023-07-18T03:42:35.060Z,98947.03
2023-07-18T03:45:01.840Z,98942.69
2023-07-18T03:47:29.416Z,98938.59
2023-07-18T03:49:57.295Z,98939.88
2023-07-18T03:52:23.865Z,98935.03
2023-07-18T03:54:50.449Z,98931.78
2023-07-18T03:57:17.023Z,98924.44
2023-07-18T03:59:43.526Z,98926.31
2023-07-18T04:02:10.162Z,98929.66
2023-07-18T04:04:36.721Z,98922.34
2023-07-18T04:07:03.698Z,98916.97
2023-07-18T04:09:30.752Z,98920.06
2023-07-18T04:11:57.309Z,98908.63
2023-07-18T04:14:23.840Z,98912.16
2023-07-18T04:16:50.409Z,98924.97
2023-07-18T04:19:16.897Z,98924.25
2023-07-18T04:21:43.407Z,98921.06
2023-07-18T04:24:10.283Z,98915.88
2023-07-18T04:26:37.207Z,98919.16
2023-07-18T04:29:07.229Z,98921.84
2023-07-18T04:31:34.117Z,98926.97
2023-07-18T04:34:00.816Z,98924.72
2023-07-18T04:36:27.321Z,98921.59
2023-07-18T04:38:53.806Z,98914.25
2023-07-18T04:41:20.547Z,98918.72
2023-07-18T04:43:48.555Z,98918.19
2023-07-18T04:46:15.111Z,98917.41
2023-07-18T04:48:41.708Z,98918.63
2023-07-18T04:51:08.314Z,98923.81
2023-07-18T04:53:34.863Z,98909.84
2023-07-18T04:56:01.511Z,98910.09
2023-07-18T04:58:28.853Z,98911.81
2023-07-18T05:00:56.640Z,98907.97
2023-07-18T05:03:24.032Z,98900.22
2023-07-18T05:05:50.679Z,98890.72
2023-07-18T05:08:18.026Z,98897.13
2023-07-18T05:10:45.075Z,98897.19
2023-07-18T05:13:11.857Z,98890.75
2023-07-18T05:15:39.113Z,98878.47
2023-07-18T05:18:05.692Z,98877.13
2023-07-18T05:20:32.329Z,98881.91
2023-07-18T05:22:59.914Z,98879.13
2023-07-18T05:25:26.539Z,98876.09
2023-07-18T05:27:53.086Z,98876.16
2023-07-18T05:30:20.823Z,98872.03
2023-07-18T05:32:51.481Z,98872.59
2023-07-18T05:35:18.057Z,98886.53
2023-07-18T05:37:45.392Z,98873.50
2023-07-18T05:40:12.743Z,98880.03
2023-07-18T05:42:40.964Z,98879.28
2023-07-18T05:45:09.233Z,98875.34
2023-07-18T05:47:39.774Z,98878.19
2023-07-18T05:50:07.664Z,98880.09
2023-07-18T05:52:34.713Z,98877.69
2023-07-18T05:55:01.540Z,98872.59
2023-07-18T05:57:28.219Z,98872.41
2023-07-18T05:59:54.800Z,98864.22
2023-07-18T06:02:22.559Z,98863.00
2023-07-18T06:04:49.242Z,98864.06
2023-07-18T06:07:17.200Z,98849.06
2023-07-18T06:09:44.343Z,98847.13
2023-07-18T06:12:11.104Z,98845.47
2023-07-18T06:14:37.673Z,98840.22
2023-07-18T06:17:04.728Z,98838.84
2023-07-18T06:19:31.413Z,98837.44
2023-07-18T06:21:58.429Z,98830.75
2023-07-18T06:24:25.687Z,98830.94
2023-07-18T06:26:52.618Z,98828.59
2023-07-18T06:29:20.157Z,98838.78
2023-07-18T06:31:48.215Z,98838.28
2023-07-18T06:34:14.925Z,98828.59
2023-07-18T06:36:41.546Z,98830.88
2023-07-18T06:39:08.202Z,98832.56
2023-07-18T06:41:34.826Z,98833.56
2023-07-18T06:44:01.348Z,98829.81
2023-07-18T06:46:28.743Z,98824.72
2023-07-18T06:48:55.258Z,98824.94
2023-07-18T06:51:21.958Z,98830.00
2023-07-18T06:53:48.532Z,98819.72
2023-07-18T06:56:15.267Z,98817.41
2023-07-18T06:58:42.858Z,98816.94
2023-07-18T07:01:11.590Z,98813.63
2023-07-18T07:03:38.583Z,98806.56
2023-07-18T07:06:12.136Z,98800.13
2023-07-18T07:08:38.725Z,98798.09
2023-07-18T07:11:09.564Z,98796.78
2023-07-18T07:13:37.508Z,98792.31
2023-07-18T07:16:05.053Z,98782.13
2023-07-18T07:18:31.995Z,98777.44
2023-07-18T07:20:58.726Z,98768.47
2023-07-18T07:23:25.365Z,98772.03
2023-07-18T07:25:52.420Z,98762.38
2023-07-18T07:28:20.563Z,98750.38
2023-07-18T07:30:47.323Z,98755.38
2023-07-18T07:33:14.129Z,98765.53
2023-07-18T07:35:40.798Z,98763.84
2023-07-18T07:38:07.822Z,98767.56
2023-07-18T07:40:34.521Z,98761.88
2023-07-18T07:43:01.130Z,98758.28
2023-07-18T07:45:27.717Z,98743.84
2023-07-18T07:47:54.698Z,98745.00
2023-07-18T07:50:21.514Z,98747.25
2023-07-18T07:52:48.272Z,98737.75
2023-07-18T07:55:14.980Z,98744.09
2023-07-18T07:57:42.377Z,98735.97
2023-07-18T08:00:09.634Z,98730.09
2023-07-18T08:02:36.246Z,98731.41
2023-07-18T08:05:02.881Z,98733.72
2023-07-18T08:07:30.074Z,98734.34
2023-07-18T08:09:56.752Z,98725.78
2023-07-18T08:12:23.471Z,98724.28
2023-07-18T08:14:50.193Z,98718.06
2023-07-18T08:17:18.129Z,98725.75
2023-07-18T08:19:44.844Z,98739.69
2023-07-18T08:22:11.768Z,98739.97
2023-07-18T08:24:39.056Z,98737.91
2023-07-18T08:27:05.797Z,98742.06
2023-07-18T08:29:34.648Z,98735.41
2023-07-18T08:32:01.447Z,98721.63
2023-07-18T08:34:28.344Z,98727.22
2023-07-18T08:36:54.966Z,98712.97
2023-07-18T08:39:21.782Z,98687.50
2023-07-18T08:41:52.814Z,98674.03
2023-07-18T08:44:20.436Z,98684.72
2023-07-18T08:46:47.925Z,98683.66
2023-07-18T08:49:16.657Z,98694.84
2023-07-18T08:51:44.536Z,98675.69
2023-07-18T08:54:12.055Z,98667.25
2023-07-18T08:56:41.482Z,98684.50
2023-07-18T08:59:08.306Z,98670.22
2023-07-18T09:01:34.990Z,98656.78
2023-07-18T09:04:02.178Z,98655.44
2023-07-18T09:06:29.090Z,98664.41
2023-07-18T09:08:56.297Z,98667.63
2023-07-18T09:11:23.155Z,98646.09
2023-07-18T09:13:50.135Z,98633.09
2023-07-18T09:16:25.147Z,98635.41
2023-07-18T09:18:53.960Z,98649.47
2023-07-18T09:21:21.925Z,98676.88
2023-07-18T09:23:49.142Z,98719.03
2023-07-18T09:26:18.446Z,98762.44
2023-07-18T09:28:44.993Z,98795.91
2023-07-18T09:31:27.944Z,98805.84
2023-07-18T09:33:55.640Z,98774.22
2023-07-18T09:36:24.258Z,98739.84
2023-07-18T09:38:51.988Z,98720.34
2023-07-18T09:41:21.881Z,98710.38
2023-07-18T09:43:49.383Z,98694.00
2023-07-18T09:46:17.492Z,98692.47
2023-07-18T09:48:48.711Z,98689.97
2023-07-18T09:51:21.792Z,98664.34
2023-07-18T09:53:49.328Z,98662.03
2023-07-18T09:56:17.190Z,98655.44
2023-07-18T09:58:45.452Z,98654.28
2023-07-18T10:01:13.714Z,98651.97
2023-07-18T10:03:41.171Z,98656.66
2023-07-18T10:06:10.581Z,98651.03
2023-07-18T10:08:40.623Z,98654.00
2023-07-18T10:11:10.869Z,98659.72
2023-07-18T10:13:55.873Z,98641.41
2023-07-18T10:16:23.797Z,98637.03
2023-07-18T10:18:52.136Z,98633.78
2023-07-18T10:21:36.340Z,98684.31
2023-07-18T10:24:29.425Z,98846.63
2023-07-18T10:26:59.997Z,98943.78
2023-07-18T10:29:35.323Z,99018.41
2023-07-18T10:32:01.929Z,98996.19
2023-07-18T10:34:28.489Z,98945.38
2023-07-18T10:37:00.411Z,98997.88
2023-07-18T10:39:38.510Z,99029.63
2023-07-18T10:42:29.860Z,99026.09
2023-07-18T10:45:00.928Z,98934.91
2023-07-18T10:47:29.221Z,98759.56
2023-07-18T10:49:56.584Z,98773.97
2023-07-18T10:52:23.337Z,98824.41
2023-07-18T10:54:56.543Z,98850.41
2023-07-18T10:57:28.902Z,98838.00
2023-07-18T10:59:56.288Z,98788.56
2023-07-18T11:02:23.182Z,98727.59
2023-07-18T11:04:54.865Z,98716.09
2023-07-18T11:07:33.507Z,98770.53
2023-07-18T11:10:01.020Z,98837.63
2023-07-18T11:12:27.596Z,98870.25
2023-07-18T11:14:56.397Z,98861.50
2023-07-18T11:17:24.419Z,98853.72
2023-07-18T11:19:50.947Z,98869.44
2023-07-18T11:22:17.742Z,98855.59
2023-07-18T11:24:46.355Z,98823.16
2023-07-18T11:27:23.050Z,98802.41
2023-07-18T11:29:50.832Z,98771.13
2023-07-18T11:32:40.255Z,98761.06
2023-07-18T11:35:11.772Z,98733.88
2023-07-18T11:37:43.032Z,98682.66
2023-07-18T11:40:11.764Z,98626.13
2023-07-18T11:42:46.233Z,98609.03
2023-07-18T11:45:12.895Z,98586.72
2023-07-18T11:47:53.349Z,98610.69
2023-07-18T11:50:20.700Z,98634.56
2023-07-18T11:52:52.055Z,98633.78
2023-07-18T11:55:20.723Z,98648.31
2023-07-18T11:57:49.320Z,98621.06
2023-07-18T12:00:19.833Z,98603.25
2023-07-18T12:02:47.475Z,98605.88
2023-07-18T12:05:17.835Z,98602.34
2023-07-18T12:07:48.192Z,98612.41
2023-07-18T12:10:19.667Z,98617.25
2023-07-18T12:12:46.356Z,98611.50
2023-07-18T12:15:13.959Z,98612.84
2023-07-18T12:17:41.055Z,98619.72
2023-07-18T12:20:08.496Z,98602.19
2023-07-18T12:22:35.654Z,98570.47
2023-07-18T12:25:04.848Z,98567.28
2023-07-18T12:27:31.415Z,98525.22
2023-07-18T12:29:58.000Z,98482.09
2023-07-18T12:32:28.059Z,98466.41
2023-07-18T12:34:55.912Z,98453.28
2023-07-18T12:37:22.482Z,98429.88
2023-07-18T12:39:49.073Z,98439.72
2023-07-18T12:42:15.646Z,98422.78
2023-07-18T12:44:44.981Z,98410.94
2023-07-18T12:47:12.186Z,98415.28
2023-07-18T12:52:09.290Z,98417.31
2023-07-18T12:54:35.832Z,98415.19
2023-07-18T12:57:02.499Z,98425.56
2023-07-18T12:59:29.168Z,98435.03
2023-07-18T13:01:56.751Z,98445.38
2023-07-18T13:04:23.619Z,98451.31
2023-07-18T13:06:50.949Z,98442.53
2023-07-18T13:09:17.502Z,98452.59
2023-07-18T13:11:44.144Z,98454.13
2023-07-18T13:14:10.660Z,98451.13
2023-07-18T13:16:37.271Z,98447.47
2023-07-18T13:19:05.218Z,98447.22
2023-07-18T13:21:32.220Z,98463.81
2023-07-18T13:23:58.780Z,98466.84
2023-07-18T13:26:25.354Z,98475.25
2023-07-18T13:28:51.877Z,98490.44
2023-07-18T13:31:18.635Z,98489.66
2023-07-18T13:33:45.283Z,98495.63
2023-07-18T13:36:12.622Z,98499.22
2023-07-18T13:38:39.239Z,98507.97
2023-07-18T13:41:09.280Z,98504.78
2023-07-18T13:43:36.895Z,98507.44
2023-07-18T13:46:03.916Z,98491.47
2023-07-18T13:48:33.770Z,98473.84
2023-07-18T13:51:01.027Z,98466.03
2023-07-18T13:53:27.771Z,98453.06
2023-07-18T13:55:54.393Z,98443.03
2023-07-18T13:58:20.966Z,98451.44
2023-07-18T14:00:47.835Z,98433.06
2023-07-18T14:03:32.212Z,98440.88
2023-07-18T14:06:01.020Z,98417.28
2023-07-18T14:08:29.280Z,98407.28
2023-07-18T14:10:56.117Z,98407.00
2023-07-18T14:13:22.947Z,98389.72
2023-07-18T14:15:49.600Z,98380.53
2023-07-18T14:18:16.414Z,98368.41
2023-07-18T14:20:43.062Z,98364.13
2023-07-18T14:23:10.036Z,98372.88
2023-07-18T14:25:36.702Z,98373.00
2023-07-18T14:28:03.232Z,98372.72
2023-07-18T14:30:29.855Z,98379.75
2023-07-18T14:32:56.482Z,98375.59
2023-07-18T14:35:24.203Z,98360.34
2023-07-18T14:37:51.858Z,98360.97
2023-07-18T14:40:18.509Z,98357.72
2023-07-18T14:42:45.438Z,98366.03
2023-07-18T14:45:12.015Z,98347.66
2023-07-18T14:47:38.616Z,98338.41
2023-07-18T14:50:05.862Z,98339.19
2023-07-18T14:52:32.422Z,98343.16
2023-07-18T14:54:59.113Z,98344.94
2023-07-18T14:57:28.706Z,98346.94
2023-07-18T14:59:55.335Z,98340.47
2023-07-18T15:02:22.115Z,98344.13
2023-07-18T15:04:48.850Z,98342.47
2023-07-18T15:07:15.793Z,98331.34
2023-07-18T15:09:42.309Z,98322.63
2023-07-18T15:12:09.322Z,98321.78
2023-07-18T15:14:36.105Z,98319.97
2023-07-18T15:17:02.715Z,98312.50
2023-07-18T15:19:29.302Z,98297.34
2023-07-18T15:21:56.356Z,98302.91
2023-07-18T15:24:22.948Z,98282.34
2023-07-18T15:26:49.526Z,98269.19
2023-07-18T15:29:16.061Z,98240.63
2023-07-18T15:31:42.739Z,98233.94
2023-07-18T15:34:10.148Z,98234.31
2023-07-18T15:36:36.738Z,98261.41
2023-07-18T15:39:03.429Z,98261.00
2023-07-18T15:41:30.025Z,98253.50
2023-07-18T15:43:57.625Z,98247.69
2023-07-18T15:46:24.857Z,98254.88
2023-07-18T15:48:51.711Z,98243.25
2023-07-18T15:51:18.424Z,98222.13
2023-07-18T15:53:45.015Z,98214.19
2023-07-18T15:56:15.560Z,98212.63
2023-07-18T15:58:42.603Z,98207.06
2023-07-18T16:01:09.445Z,98218.53
2023-07-18T16:03:36.245Z,98228.06
2023-07-18T16:06:03.570Z,98225.63
2023-07-18T16:08:30.554Z,98221.50
2023-07-18T16:10:57.192Z,98214.41
2023-07-18T16:13:23.808Z,98197.63
2023-07-18T16:15:50.428Z,98202.72
2023-07-18T16:18:17.307Z,98193.06
2023-07-18T16:20:43.823Z,98207.69
2023-07-18T16:23:10.721Z,98197.72
2023-07-18T16:25:37.457Z,98207.41
2023-07-18T16:28:04.987Z,98215.31
2023-07-18T16:30:31.794Z,98212.00
2023-07-18T16:32:58.473Z,98213.72
2023-07-18T16:35:25.121Z,98219.00
2023-07-18T16:37:51.670Z,98221.72
2023-07-18T16:40:18.262Z,98221.66
2023-07-18T16:42:44.861Z,98220.50
2023-07-18T16:45:11.388Z,98211.25
2023-07-18T16:47:37.924Z,98214.75
2023-07-18T16:50:05.931Z,98215.53
2023-07-18T16:52:32.477Z,98211.47
2023-07-18T16:54:59.007Z,98218.66
2023-07-18T16:57:25.580Z,98214.88
2023-07-18T16:59:52.173Z,98211.59
2023-07-18T17:02:18.655Z,98208.78
2023-07-18T17:04:45.185Z,98209.03
2023-07-18T17:07:11.772Z,98205.97
2023-07-18T17:09:38.249Z,98209.94
2023-07-18T17:12:05.249Z,98199.53
2023-07-18T17:14:32.107Z,98198.25
2023-07-18T17:16:58.736Z,98186.97
2023-07-18T17:19:25.313Z,98174.25
2023-07-18T17:21:51.801Z,98182.56
2023-07-18T17:24:18.342Z,98164.38
2023-07-18T17:26:45.009Z,98163.91
2023-07-18T17:29:11.644Z,98159.94
2023-07-18T17:31:38.200Z,98160.28
2023-07-18T17:34:05.620Z,98153.13
2023-07-18T17:36:32.252Z,98158.25
2023-07-18T17:38:58.751Z,98163.69
2023-07-18T17:41:25.270Z,98165.28
2023-07-18T17:43:51.762Z,98156.91
2023-07-18T17:46:18.355Z,98164.28
2023-07-18T17:48:45.501Z,98160.25
2023-07-18T17:51:12.442Z,98160.25
2023-07-18T17:53:39.792Z,98166.31
2023-07-18T17:56:07.063Z,98163.53
2023-07-18T17:58:33.574Z,98154.00
2023-07-18T18:01:00.114Z,98157.66
2023-07-18T18:03:26.789Z,98151.34
2023-07-18T18:05:53.534Z,98145.63
2023-07-18T18:08:20.122Z,98143.81
2023-07-18T18:10:47.591Z,98145.75
2023-07-18T18:13:15.120Z,98141.22
2023-07-18T18:15:56.209Z,98133.34
2023-07-18T18:18:26.396Z,98133.75
2023-07-18T18:20:53.047Z,98134.19
2023-07-18T18:23:31.872Z,98143.22
2023-07-18T18:26:05.104Z,98144.28
2023-07-18T18:28:32.895Z,98142.78
2023-07-18T18:30:59.407Z,98136.31
2023-07-18T18:33:26.076Z,98142.03
2023-07-18T18:35:53.348Z,98140.94
2023-07-18T18:38:19.999Z,98144.00
2023-07-18T18:40:46.601Z,98151.88
2023-07-18T18:43:13.200Z,98171.44
2023-07-18T18:45:39.732Z,98170.50
2023-07-18T18:48:08.022Z,98179.38
2023-07-18T18:50:34.664Z,98183.53
2023-07-18T18:53:01.471Z,98186.53
2023-07-18T18:55:29.945Z,98181.53
2023-07-18T18:57:58.033Z,98188.09
2023-07-18T19:00:24.605Z,98181.03
2023-07-18T19:02:51.492Z,98188.06
2023-07-18T19:05:18.187Z,98201.28
2023-07-18T19:07:44.705Z,98205.75
2023-07-18T19:10:11.309Z,98202.91
2023-07-18T19:12:37.875Z,98202.31
2023-07-18T19:15:04.688Z,98200.34
2023-07-18T19:17:31.355Z,98204.34
2023-07-18T19:19:58.029Z,98217.22
2023-07-18T19:22:24.547Z,98218.84
2023-07-18T19:24:51.213Z,98213.72
2023-07-18T19:27:17.872Z,98209.63
2023-07-18T19:29:45.608Z,98211.84
2023-07-18T19:32:12.335Z,98216.44
2023-07-18T19:34:42.530Z,98223.59
2023-07-18T19:37:09.242Z,98228.44
2023-07-18T19:39:37.175Z,98239.91
2023-07-18T19:42:07.114Z,98242.09
2023-07-18T19:44:35.301Z,98254.50
2023-07-18T19:47:03.125Z,98246.03
2023-07-18T19:49:30.049Z,98238.72
2023-07-18T19:51:59.804Z,98245.63
2023-07-18T19:54:26.960Z,98252.50
2023-07-18T19:56:54.362Z,98247.81
2023-07-18T19:59:20.931Z,98255.50
2023-07-18T20:01:47.881Z,98262.72
2023-07-18T20:04:14.744Z,98268.25
2023-07-18T20:06:41.700Z,98270.78
2023-07-18T20:09:08.503Z,98270.31
2023-07-18T20:11:35.132Z,98266.31
2023-07-18T20:14:02.248Z,98278.56
2023-07-18T20:16:28.830Z,98278.69
2023-07-18T20:19:01.354Z,98264.69
2023-07-18T20:21:29.435Z,98273.13
2023-07-18T20:23:56.917Z,98265.31
2023-07-18T20:26:23.671Z,98293.63
2023-07-18T20:28:50.267Z,98276.75
2023-07-18T20:31:17.156Z,98285.47
2023-07-18T20:33:44.041Z,98307.06
2023-07-18T20:36:10.671Z,98295.88
2023-07-18T20:38:37.360Z,98289.69
2023-07-18T20:41:06.738Z,98307.75
2023-07-18T20:43:35.157Z,98298.78
2023-07-18T20:46:03.643Z,98294.88
2023-07-18T20:48:31.318Z,98309.09
2023-07-18T20:50:59.279Z,98296.41
2023-07-18T20:53:26.904Z,98311.78
2023-07-18T20:55:53.476Z,98302.41
2023-07-18T20:58:20.005Z,98305.38
2023-07-18T21:00:46.696Z,98327.78
2023-07-18T21:03:13.299Z,98317.81
2023-07-18T21:05:40.433Z,98321.09
2023-07-18T21:08:07.341Z,98324.97
2023-07-18T21:10:34.613Z,98325.63
2023-07-18T21:13:01.618Z,98323.19
2023-07-18T21:15:28.319Z,98314.13
2023-07-18T21:17:55.169Z,98323.56
2023-07-18T21:20:21.928Z,98327.44
2023-07-18T21:22:48.481Z,98331.19
2023-07-18T21:25:15.061Z,98322.50
2023-07-18T21:27:41.546Z,98333.88
2023-07-18T21:30:08.940Z,98330.38
2023-07-18T21:32:36.312Z,98326.56
2023-07-18T21:35:03.867Z,98328.31
2023-07-18T21:37:30.483Z,98329.50
2023-07-18T21:39:57.314Z,98332.88
2023-07-18T21:42:23.843Z,98332.19
2023-07-18T21:44:50.492Z,98338.66
2023-07-18T21:47:17.105Z,98335.13
2023-07-18T21:49:43.835Z,98336.75
2023-07-18T21:52:10.386Z,98327.75
2023-07-18T21:54:37.058Z,98341.81
2023-07-18T21:57:04.837Z,98342.66
2023-07-18T21:59:31.305Z,98339.94
2023-07-18T22:01:57.826Z,98335.38
2023-07-18T22:04:24.398Z,98327.53
2023-07-18T22:06:50.970Z,98339.66
2023-07-18T22:09:17.506Z,98344.66
2023-07-18T22:11:44.040Z,98354.47
2023-07-18T22:14:10.530Z,98354.84
2023-07-18T22:16:37.056Z,98359.53
2023-07-18T22:19:03.594Z,98359.97
2023-07-18T22:21:30.156Z,98358.81
2023-07-18T22:23:56.675Z,98357.69
2023-07-18T22:26:23.280Z,98356.78
2023-07-18T22:28:49.882Z,98360.75
2023-07-18T22:31:17.262Z,98363.81
2023-07-18T22:33:43.836Z,98363.19
2023-07-18T22:36:10.396Z,98355.44
2023-07-18T22:38:37.044Z,98347.22
2023-07-18T22:41:04.353Z,98348.38
2023-07-18T22:43:30.925Z,98347.59
2023-07-18T22:45:57.608Z,98349.06
2023-07-18T22:48:24.178Z,98346.81
2023-07-18T22:50:53.572Z,98349.06
2023-07-18T22:53:20.324Z,98352.72
2023-07-18T22:55:48.529Z,98353.22
2023-07-18T22:58:15.896Z,98351.63
2023-07-18T23:00:43.256Z,98347.47
2023-07-18T23:03:10.030Z,98348.63
2023-07-18T23:05:36.943Z,98347.47
2023-07-18T23:08:05.476Z,98330.25
2023-07-18T23:10:33.038Z,98333.63
2023-07-18T23:12:59.887Z,98345.88
2023-07-18T23:15:26.816Z,98342.31
2023-07-18T23:17:53.533Z,98344.44
2023-07-18T23:20:20.194Z,98341.50
2023-07-18T23:22:46.774Z,98336.31
2023-07-18T23:25:13.413Z,98338.75
2023-07-18T23:27:40.043Z,98337.63
2023-07-18T23:30:07.378Z,98341.00
2023-07-18T23:32:34.101Z,98335.09
2023-07-18T23:35:00.872Z,98334.38
2023-07-18T23:37:27.506Z,98335.81
2023-07-18T23:39:54.208Z,98326.44
2023-07-18T23:42:20.808Z,98329.06
2023-07-18T23:44:47.401Z,98335.03
2023-07-18T23:47:13.929Z,98336.47
2023-07-18T23:49:40.492Z,98328.63
2023-07-18T23:52:07.442Z,98339.13
2023-07-18T23:54:34.025Z,98333.78
2023-07-18T23:57:00.612Z,98331.81
2023-07-18T23:59:27.070Z,98331.06
